• Join FlightAware (Why Join?)
  • Login
  • US Flag 
09:34PM EDT


 

Airport Tracker/Info


-or-


 

Live Flight TrackerFlight Track Log ✈ SWA279 ✈ 23-Apr-2013 ✈ KMHT - KDEN

Flight Track Log - Related Links

Times and Time Zones

All times are in EDT time to prevent confusion due to time zone crossing. See the SWA279 flight status page for this flight to view local times or setup timezone preferences in your user account.

Time Position Orientation Groundspeed Altitude Reporting Facility
EDT Latitude Longitude Course Direction KTS MPH feet Rate Location/Type
06:58AM 42.9500 -71.4167 341° North 161 185 1,300  Level KA90
07:00AM 43.0444 -71.4600 341° North 229 264 5,800 2,520 Climbing Boston Center
07:01AM 43.0867 -71.5361 307° West 250 288 8,800 2,700 Climbing Boston Center
07:02AM 43.1022 -71.6553 280° West 275 316 11,200 2,580 Climbing Boston Center
07:03AM 43.1050 -71.7747 272° West 322 371 14,000 2,880 Climbing Boston Center
07:04AM 43.1119 -71.9281 274° West 363 418 17,000 2,460 Climbing Boston Center
07:05AM 43.1106 -72.0561 269° West 377 434 19,000 2,280 Climbing Boston Center
07:06AM 43.0817 -72.1928 254° West 382 440 21,600 2,340 Climbing Boston Center
07:07AM 43.0839 -72.3378 271° West 382 440 23,700 1,980 Climbing Boston Center
07:08AM 43.0903 -72.4914 273° West 393 452 25,600 2,040 Climbing Boston Center
07:09AM 43.0900 -72.6675 270° West 405 466 27,800 2,220 Climbing Boston Center
07:10AM 43.0958 -72.8239 273° West 417 480 30,100 1,980 Climbing Boston Center
07:11AM 43.0994 -72.9775 272° West 417 480 31,800 1,560 Climbing Boston Center
07:12AM 43.1069 -73.1111 274° West 411 473 33,300 1,620 Climbing Boston Center
07:13AM 43.1122 -73.2592 273° West 400 460 35,100 1,320 Climbing Boston Center
07:14AM 43.1133 -73.4014 271° West 389 448 36,000 360 Climbing Boston Center
07:15AM 43.1161 -73.5464 272° West 384 442 36,000  Level Boston Center
07:16AM 43.1225 -73.7231 273° West 384 442 36,000  Level Boston Center
07:17AM 43.1250 -73.8681 271° West 384 442 36,000  Level Boston Center
07:18AM 43.1294 -74.0192 272° West 384 442 36,100 540 Climbing Boston Center
07:19AM 43.1333 -74.1669 272° West 389 448 37,100 900 Climbing Boston Center
07:20AM 43.1372 -74.3150 272° West 389 448 37,900 420 Climbing Boston Center
07:21AM 43.1389 -74.4631 271° West 389 448 38,000  Climbing Boston Center
07:22AM 43.1425 -74.6114 272° West 389 448 38,000  Level Boston Center
07:23AM 43.1458 -74.7594 272° West 389 448 38,000  Level Boston Center
07:24AM 43.1469 -74.9075 271° West 389 448 38,000  Level Boston Center
07:25AM 43.1497 -75.0614 271° West 389 448 38,000  Level Boston Center
07:26AM 43.1525 -75.2122 271° West 394 453 38,000  Level Boston Center
07:27AM 43.1528 -75.3631 270° West 400 460 38,000  Level Boston Center
07:28AM 43.1547 -75.5283 271° West 400 460 38,000  Level Boston Center
07:29AM 43.1569 -75.6764 271° West 400 460 38,000  Level Boston Center
07:30AM 43.1600 -75.8589 271° West 400 460 38,000  Level Boston Center
07:31AM 43.1614 -76.0128 271° West 400 460 38,000  Level Boston Center
07:33AM 43.1389 -76.2808 264° West 402 463 38,000  Level Cleveland Center
07:34AM 43.0939 -76.4206 246° West 395 455 38,000  Level Cleveland Center
07:35AM 43.0489 -76.5600 246° West 400 460 38,000  Level Cleveland Center
07:36AM 43.0039 -76.7050 247° West 406 467 38,000  Level Cleveland Center
07:37AM 42.9619 -76.8294 245° Southwest 400 460 38,000  Level Cleveland Center
07:38AM 42.9164 -76.9711 246° West 410 472 38,000  Level Cleveland Center
07:39AM 42.8689 -77.1156 246° West 410 472 38,000  Level Cleveland Center
07:40AM 42.8208 -77.2600 246° West 410 472 38,000  Level Cleveland Center
07:41AM 42.7750 -77.4008 246° West 415 478 38,000  Level Cleveland Center
07:42AM 42.7267 -77.5447 245° Southwest 415 478 38,000  Level Cleveland Center
07:43AM 42.6783 -77.6967 247° West 415 478 38,000  Level Cleveland Center
07:44AM 42.6319 -77.8428 247° West 410 472 38,000  Level Cleveland Center
07:45AM 42.5831 -77.9775 244° Southwest 405 466 38,000  Level Cleveland Center
07:46AM 42.5358 -78.1147 245° Southwest 405 466 38,000  Level Cleveland Center
07:47AM 42.4889 -78.2575 246° West 405 466 38,000  Level Cleveland Center
07:48AM 42.4417 -78.3969 245° Southwest 405 466 38,000  Level Cleveland Center
07:49AM 42.3942 -78.5364 245° Southwest 405 466 38,000  Level Cleveland Center
07:50AM 42.3464 -78.6728 245° Southwest 405 466 38,000  Level Cleveland Center
07:51AM 42.2986 -78.8119 245° Southwest 405 466 38,000  Level Cleveland Center
07:52AM 42.2525 -78.9336 243° Southwest 405 466 38,000  Level Cleveland Center
07:53AM 42.2006 -79.0892 246° West 405 466 38,000  Level Cleveland Center
07:54AM 42.1878 -79.2353 263° West 394 453 38,000  Level Cleveland Center
07:55AM 42.1850 -79.3839 269° West 399 459 38,000  Level Cleveland Center
07:56AM 42.1825 -79.5408 269° West 406 467 38,000  Level Cleveland Center
07:57AM 42.1794 -79.6867 268° West 406 467 38,000  Level Cleveland Center
07:58AM 42.1764 -79.8381 268° West 406 467 38,000  Level Cleveland Center
07:59AM 42.1731 -79.9919 268° West 406 467 38,000  Level Cleveland Center
08:00AM 42.1697 -80.1461 268° West 411 473 38,000  Level Cleveland Center
08:01AM 42.1661 -80.3003 268° West 411 473 38,000  Level Cleveland Center
08:02AM 42.1619 -80.4375 268° West 416 479 38,000  Level Cleveland Center
08:03AM 42.1581 -80.5917 268° West 416 479 38,000  Level Cleveland Center
08:04AM 42.1536 -80.7456 268° West 419 482 38,000  Level Cleveland Center
08:05AM 42.1514 -80.8969 269° West 412 474 38,000  Level Cleveland Center
08:06AM 42.1467 -81.0425 268° West 407 468 38,000  Level Cleveland Center
08:07AM 42.1417 -81.1908 267° West 396 456 38,000  Level Cleveland Center
08:08AM 42.1347 -81.3364 266° West 401 461 38,000  Level Cleveland Center
08:09AM 42.1314 -81.4847 268° West 396 456 38,000  Level Cleveland Center
08:10AM 42.1261 -81.6275 267° West 396 456 38,000  Level Cleveland Center
08:11AM 42.1225 -81.7842 268° West 386 444 38,000  Level Cleveland Center
08:12AM 42.1167 -81.9325 267° West 386 444 38,000  Level Cleveland Center
08:13AM 42.1086 -82.0722 266° West 381 438 38,000  Level Cleveland Center
08:14AM 42.1028 -82.2008 267° West 381 438 38,000  Level Cleveland Center
08:15AM 42.0944 -82.3461 266° West 386 444 38,000  Level Cleveland Center
08:16AM 42.0964 -82.4889 271° West 386 444 38,000  Level Cleveland Center
08:17AM 42.0792 -82.6339 261° West 386 444 38,000  Level Cleveland Center
08:18AM 42.0786 -82.7764 270° West 386 444 38,000  Level Cleveland Center
08:19AM 42.0717 -82.9189 266° West 386 444 38,000  Level Cleveland Center
08:20AM 42.0642 -83.0781 266° West 386 444 38,000  Level Cleveland Center
08:21AM 42.0567 -83.2231 266° West 386 444 38,000  Level Cleveland Center
08:22AM 42.0514 -83.3656 267° West 386 444 38,000  Level Cleveland Center
08:23AM 42.0419 -83.4883 264° West 381 438 38,000  Level Cleveland Center
08:24AM 42.0275 -83.6442 263° West 381 438 38,000  Level Cleveland Center
08:25AM 42.0156 -83.7806 263° West 386 444 38,000  Level Cleveland Center
08:26AM 42.0050 -83.9225 264° West 386 444 38,000  Level Cleveland Center
08:28AM 41.9783 -84.2169 263° West 379 436 38,000  Level Chicago Center
08:29AM 41.9619 -84.3886 263° West 386 444 38,000  Level Chicago Center
08:30AM 41.9503 -84.5211 263° West 376 433 38,000  Level Chicago Center
08:31AM 41.9350 -84.6564 261° West 371 427 38,000  Level Chicago Center
08:32AM 41.9233 -84.7914 263° West 369 425 38,000  Level Chicago Center
08:33AM 41.9097 -84.9264 262° West 367 422 38,000  Level Chicago Center
08:34AM 41.8922 -85.0931 262° West 377 434 38,000  Level Chicago Center
08:35AM 41.8783 -85.2314 262° West 378 435 38,000  Level Chicago Center
08:36AM 41.8658 -85.3689 263° West 378 435 38,000  Level Chicago Center
08:37AM 41.8519 -85.5050 262° West 376 433 38,000  Level Chicago Center
08:38AM 41.8378 -85.6406 262° West 373 429 38,000  Level Chicago Center
08:39AM 41.8211 -85.8031 262° West 370 426 38,000  Level Chicago Center
08:40AM 41.8075 -85.9364 262° West 366 421 38,000  Level Chicago Center
08:41AM 41.7944 -86.0708 263° West 365 420 38,000  Level Chicago Center
08:42AM 41.7800 -86.2033 262° West 362 417 38,000  Level Chicago Center
08:44AM 41.7672 -86.3342 263° West 355 409 38,000  Level Chicago Center
08:45AM 41.7536 -86.4650 262° West 356 410 38,000  Level Chicago Center
08:46AM 41.7369 -86.6181 262° West 346 398 38,000  Level Chicago Center
08:47AM 41.7256 -86.7311 262° West 343 395 38,000  Level Chicago Center
08:48AM 41.7117 -86.8536 261° West 336 387 38,000  Level Chicago Center
08:49AM 41.6981 -87.0019 263° West 336 387 38,000  Level Chicago Center
08:50AM 41.6833 -87.1225 261° West 331 381 38,000  Level Chicago Center
08:51AM 41.6706 -87.2419 262° West 327 376 38,000  Level Chicago Center
08:52AM 41.6572 -87.3589 261° West 322 371 38,000  Level Chicago Center
08:53AM 41.6439 -87.4744 261° West 318 366 38,000  Level Chicago Center
08:54AM 41.6311 -87.5917 262° West 321 369 38,000  Level Chicago Center
08:55AM 41.6142 -87.7342 261° West 325 374 38,000  Level Chicago Center
08:56AM 41.6014 -87.8519 262° West 324 373 38,000  Level Chicago Center
08:57AM 41.5875 -87.9686 261° West 324 373 38,000  Level Chicago Center
08:58AM 41.5739 -88.0844 261° West 323 372 38,000  Level Chicago Center
08:59AM 41.5575 -88.2244 261° West 324 373 38,000  Level Chicago Center
09:00AM 41.5458 -88.3417 262° West 324 373 38,000  Level Chicago Center
09:01AM 41.5467 -88.4617 271° West 324 373 38,000  Level Chicago Center
09:02AM 41.5469 -88.5833 270° West 329 379 38,000  Level Chicago Center
09:03AM 41.5475 -88.7056 270° West 332 382 38,000  Level Chicago Center
09:04AM 41.5478 -88.8269 270° West 330 380 38,000  Level Chicago Center
09:05AM 41.5481 -88.9744 270° West 332 382 38,000  Level Chicago Center
09:06AM 41.5483 -89.0972 270° West 333 383 38,000  Level Chicago Center
09:07AM 41.5489 -89.2200 270° West 334 384 38,000  Level Chicago Center
09:08AM 41.5483 -89.3422 270° West 330 380 38,000  Level Chicago Center
09:09AM 41.5481 -89.4636 270° West 330 380 38,000  Level Chicago Center
09:10AM 41.5475 -89.6000 270° West 333 383 38,000  Level Chicago Center
09:11AM 41.5464 -89.7231 269° West 334 384 38,000  Level Chicago Center
09:12AM 41.5453 -89.8467 269° West 333 383 38,000  Level Chicago Center
09:13AM 41.5406 -89.9678 267° West 329 379 38,000  Level Chicago Center
09:14AM 41.5308 -90.0931 264° West 336 387 38,000  Level Chicago Center
09:15AM 41.5200 -90.2417 264° West 336 387 38,000  Level Chicago Center
09:16AM 41.5106 -90.3644 264° West 335 386 38,000  Level Chicago Center
09:17AM 41.5014 -90.4867 264° West 334 384 38,000  Level Chicago Center
09:18AM 41.4917 -90.6094 264° West 335 386 38,000  Level Chicago Center
09:19AM 41.4811 -90.7350 264° West 340 391 38,000  Level Chicago Center
09:21AM 41.4700 -90.8614 263° West 342 394 38,000  Level Chicago Center
09:22AM 41.4606 -90.9856 264° West 339 390 38,000  Level Chicago Center
09:23AM 41.4478 -91.1367 264° West 341 392 38,000  Level Chicago Center
09:24AM 41.4378 -91.2614 264° West 340 391 38,000  Level Chicago Center
09:25AM 41.4281 -91.3744 263° West 343 395 38,000  Level Chicago Center
09:26AM 41.4153 -91.5250 264° West 343 395 38,000  Level Chicago Center
09:27AM 41.4039 -91.6500 263° West 342 394 38,000  Level Chicago Center
09:28AM 41.3936 -91.7744 264° West 342 394 38,000  Level Chicago Center
09:29AM 41.3825 -91.8975 263° West 337 388 38,000  Level Chicago Center
09:30AM 41.3717 -92.0222 263° West 340 391 38,000  Level Chicago Center
09:31AM 41.3578 -92.1675 263° West 333 383 38,000  Level Chicago Center
09:32AM 41.3461 -92.2911 263° West 337 388 38,000  Level Chicago Center
09:33AM 41.3339 -92.4181 263° West 335 386 38,000  Level Chicago Center
09:34AM 41.3222 -92.5425 263° West 340 391 38,000  Level Chicago Center
09:35AM 41.3108 -92.6639 263° West 337 388 38,000  Level Chicago Center
09:35AM 41.3083 -92.6917 263° West 339 390 38,000  Level Minneapolis Center
09:36AM 41.2939 -92.8375 263° West 337 388 38,000  Level Minneapolis Center
09:37AM 41.2817 -92.9589 262° West 335 386 38,000  Level Minneapolis Center
09:38AM 41.2700 -93.0817 263° West 337 388 38,000  Level Minneapolis Center
09:39AM 41.2553 -93.2300 263° West 340 391 38,000  Level Minneapolis Center
09:40AM 41.2417 -93.3517 262° West 339 390 38,000  Level Minneapolis Center
09:41AM 41.2286 -93.4761 262° West 340 391 38,000  Level Minneapolis Center
09:43AM 41.2164 -93.5950 262° West 335 386 38,000  Level Minneapolis Center
09:44AM 41.2042 -93.7164 262° West 334 384 38,000  Level Minneapolis Center
09:45AM 41.1925 -93.8375 263° West 334 384 38,000  Level Minneapolis Center
09:46AM 41.2211 -93.9753 285° West 347 399 38,000  Level Minneapolis Center
09:47AM 41.3197 -94.0419 333° Northwest 392 451 38,000  Level Minneapolis Center
09:48AM 41.4439 -94.1106 338° Northwest 402 463 38,000  Level Minneapolis Center
09:49AM 41.5008 -94.2072 308° West 348 400 38,000  Level Minneapolis Center
09:50AM 41.4906 -94.3275 264° West 337 388 38,000  Level Minneapolis Center
09:51AM 41.4836 -94.4269 265° West 336 387 38,000  Level Minneapolis Center
09:52AM 41.4700 -94.5981 264° West 333 383 38,000  Level Minneapolis Center
09:53AM 41.4597 -94.7219 264° West 334 384 38,000  Level Minneapolis Center
09:54AM 41.4497 -94.8500 264° West 340 391 38,000  Level Minneapolis Center
09:55AM 41.4375 -94.9756 263° West 342 394 38,000  Level Minneapolis Center
09:56AM 41.4272 -95.1031 264° West 346 398 38,000  Level Minneapolis Center
09:57AM 41.4156 -95.2294 263° West 344 396 38,000  Level Minneapolis Center
09:58AM 41.4036 -95.3569 263° West 347 399 38,000  Level Minneapolis Center
09:59AM 41.3917 -95.4817 263° West 344 396 38,000  Level Minneapolis Center
10:00AM 41.3767 -95.6319 262° West 342 394 38,000  Level Minneapolis Center
10:01AM 41.3656 -95.7561 263° West 339 390 38,000  Level Minneapolis Center
10:02AM 41.3539 -95.8825 263° West 342 394 38,000  Level Minneapolis Center
10:03AM 41.3414 -96.0061 262° West 339 390 38,000  Level Minneapolis Center
10:04AM 41.3297 -96.1264 263° West 331 381 38,000  Level Minneapolis Center
10:05AM 41.3175 -96.2508 263° West 337 388 38,000  Level Minneapolis Center
10:06AM 41.3042 -96.3872 263° West 342 394 38,000  Level Minneapolis Center
10:07AM 41.2911 -96.5106 262° West 338 389 38,000  Level Minneapolis Center
10:08AM 41.2781 -96.6367 262° West 342 394 38,000  Level Minneapolis Center
10:09AM 41.2642 -96.7611 262° West 341 392 38,000  Level Minneapolis Center
10:10AM 41.2514 -96.8867 262° West 343 395 38,000  Level Minneapolis Center
10:11AM 41.2350 -97.0347 262° West 339 390 38,000  Level Minneapolis Center
10:13AM 41.2214 -97.1586 262° West 339 390 38,000  Level Minneapolis Center
10:14AM 41.2078 -97.2808 262° West 337 388 38,000  Level Minneapolis Center
10:15AM 41.1961 -97.3961 262° West 338 389 38,000  Level Minneapolis Center
10:16AM 41.1817 -97.5203 261° West 340 391 38,000  Level Minneapolis Center
10:17AM 41.1644 -97.6689 261° West 339 390 38,000  Level Minneapolis Center
10:18AM 41.1506 -97.7936 262° West 341 392 38,000  Level Minneapolis Center
10:19AM 41.1364 -97.9189 262° West 342 394 38,000  Level Minneapolis Center
10:20AM 41.1219 -98.0475 262° West 349 402 38,000  Level Minneapolis Center
10:21AM 41.1072 -98.1744 261° West 349 402 38,000  Level Minneapolis Center
10:22AM 41.0917 -98.3011 261° West 348 400 38,000  Level Minneapolis Center
10:23AM 41.0767 -98.4311 261° West 353 406 38,000  Level Minneapolis Center
10:24AM 41.0600 -98.5683 261° West 357 411 38,000  Level Minneapolis Center
10:25AM 41.0447 -98.6978 261° West 357 411 38,000  Level Minneapolis Center
10:26AM 41.0289 -98.8264 261° West 355 409 38,000  Level Minneapolis Center
10:27AM 41.0089 -98.9819 260° West 356 410 38,000  Level Minneapolis Center
10:28AM 40.9933 -99.1111 261° West 357 411 38,000  Level Minneapolis Center
10:28AM 40.9864 -99.1672 261° West 356 410 38,000  Level Denver Center
10:30AM 40.9700 -99.2967 261° West 355 409 38,000  Level Denver Center
10:31AM 40.9489 -99.4528 260° West 358 412 38,000  Level Denver Center
10:32AM 40.9325 -99.5806 260° West 354 407 38,000  Level Denver Center
10:33AM 40.9161 -99.7100 261° West 356 410 38,000  Level Denver Center
10:34AM 40.9019 -99.8136 260° West 357 411 38,000  Level Denver Center
10:35AM 40.8808 -99.9669 260° West 358 412 38,000  Level Denver Center
10:36AM 40.8617 -100.1114 260° West 358 412 38,000  Level Denver Center
10:37AM 40.8442 -100.2372 260° West 363 418 38,000  Level Denver Center
10:38AM 40.8242 -100.3828 260° West 363 418 38,000  Level Denver Center
10:39AM 40.8075 -100.5069 260° West 361 415 38,000  Level Denver Center
10:40AM 40.7903 -100.6325 260° West 360 414 38,000  Level Denver Center
10:41AM 40.7667 -100.7831 258° West 362 417 38,000  Level Denver Center
10:42AM 40.7447 -100.9078 257° West 360 414 38,000  Level Denver Center
10:43AM 40.7244 -101.0328 258° West 363 418 38,000  Level Denver Center
10:44AM 40.7003 -101.1758 257° West 357 411 38,000  Level Denver Center
10:45AM 40.6781 -101.2975 256° West 357 411 38,000  Level Denver Center
10:46AM 40.6572 -101.4194 257° West 357 411 38,000  Level Denver Center
10:47AM 40.6317 -101.5603 257° West 355 409 38,000  Level Denver Center
10:48AM 40.6058 -101.7017 257° West 357 411 38,000  Level Denver Center
10:49AM 40.5836 -101.8236 257° West 359 413 38,000  Level Denver Center
10:50AM 40.5581 -101.9678 257° West 361 415 38,000  Level Denver Center
10:51AM 40.5353 -102.0911 256° West 364 419 38,000  Level Denver Center
10:52AM 40.5100 -102.2328 257° West 359 413 38,000  Level Denver Center
10:53AM 40.4867 -102.3553 256° West 360 414 38,000  Level Denver Center
10:54AM 40.4656 -102.4778 257° West 361 415 38,000 -540 Level Denver Center
10:55AM 40.4383 -102.6183 256° West 355 409 37,000 -1,020 Descending Denver Center
10:56AM 40.4139 -102.7433 256° West 346 398 36,000 -960 Descending Denver Center
10:57AM 40.3908 -102.8697 257° West 354 407 35,100 -1,020 Descending Denver Center
10:58AM 40.3672 -102.9908 256° West 342 394 34,000 -780 Descending Denver Center
10:59AM 40.3444 -103.1119 256° West 341 392 33,600 -1,020 Descending Denver Center
11:00AM 40.3206 -103.2342 256° West 345 397 32,000 -1,800 Descending Denver Center
11:01AM 40.2950 -103.3708 256° West 330 380 29,900 -2,040 Descending Denver Center
11:03AM 40.2733 -103.4800 255° West 310 357 27,900 -2,040 Descending Denver Center
11:04AM 40.2522 -103.5883 256° West 306 352 25,800 -2,040 Descending Denver Center
11:05AM 40.2306 -103.6975 255° West 307 353 23,800 -1,560 Descending Denver Center
11:06AM 40.2097 -103.8064 256° West 288 331 22,600 -1,200 Descending Denver Center
11:07AM 40.1797 -103.9025 248° West 266 306 21,300 -1,380 Descending Denver Center
11:08AM 40.1408 -103.9814 237° Southwest 259 298 19,800 -1,380 Descending Denver Center
11:09AM 40.1044 -104.0611 239° Southwest 256 295 18,500 -1,320 Descending Denver Center
11:10AM 40.0644 -104.1483 239° Southwest 263 303 17,100 -780 Descending Denver Center
11:11AM 40.0253 -104.2292 238° Southwest 266 306 16,900 -780 Descending Denver Center
11:12AM 39.9892 -104.3094 240° Southwest 240 276 15,600 -1,260 Descending Denver Center
11:13AM 39.9500 -104.3833 235° Southwest 244 281 14,400 -1,200 Descending Denver TRACON
11:14AM 39.9167 -104.4667 242° Southwest 246 283 13,300 -1,200 Descending Denver TRACON
11:15AM 39.8667 -104.5000 207° Southwest 265 305 12,200 -1,260 Descending Denver TRACON
11:16AM 39.8000 -104.5000 180° South 249 287 11,000 -960 Descending Denver TRACON
11:16AM 39.7861 -104.5017 185° South 249 287 11,000 -720 Level Denver Center
11:17AM 39.7192 -104.5025 181° South 226 260 10,100 -960 Descending Denver Center
11:18AM 39.6578 -104.5036 181° South 223 257 9,100 -540 Descending Denver Center
11:19AM 39.5944 -104.5047 181° South 212 244 9,000 -60 Descending Denver Center
11:20AM 39.5333 -104.5053 180° South 217 250 9,000  Level Denver Center
11:21AM 39.4831 -104.5389 207° Southwest 231 266 9,000 -540 Level Denver Center
11:22AM 39.5022 -104.6022 291° West 214 246 8,000 -540 Descending Denver Center
11:23AM 39.5519 -104.6350 333° Northwest 201 231 8,000  Level Denver Center
11:24AM 39.6072 -104.6456 352° North 182 209 8,000  Level Denver Center
11:25AM 39.6569 -104.6442 North 180 207 8,000  Level Denver Center
11:26AM 39.7075 -104.6433 North 173 199 8,000 -540 Level Denver Center
11:27AM 39.7558 -104.6428 North 175 201 7,000 -960 Descending Denver Center
11:28AM 39.8014 -104.6422 North 147 169 6,100 -840 Descending Denver Center
11:29AM 39.8367 -104.6422 360° North 140 161 5,300 -780 Descending Denver Center
11:31AM 39.8500 -104.6667 North  Level FlightAware Approximate